Time;durP1;ratioP1;P1;durP2;ratioP2;P2;SDS_P1;SDS_P2;PMS_P1;PMS_P2;Temp;Humidity;BMP_temperature;BMP_pressure;BME280_temperature;BME280_humidity;BME280_pressure;Samples;Min_cycle;Max_cycle;Signal;HPM_P1;HPM_P2
2021/12/30 00:01:03;;;;;;;15.98;14.38;;;10.10;99.90;;;;;;4935848;29;20258;-65
2021/12/30 00:03:32;;;;;;;16.60;14.57;;;10.10;99.90;;;;;;4935400;29;20200;-65
2021/12/30 00:06:01;;;;;;;14.57;13.07;;;10.10;99.90;;;;;;4948622;28;20222;-63
2021/12/30 00:08:29;;;;;;;13.48;12.18;;;10.20;99.90;;;;;;4942827;28;20199;-63
2021/12/30 00:10:57;;;;;;;15.32;13.63;;;10.30;99.90;;;;;;4938008;29;20311;-63
2021/12/30 00:13:25;;;;;;;14.48;13.07;;;10.30;99.90;;;;;;4944756;28;20227;-64
2021/12/30 00:15:53;;;;;;;13.05;11.75;;;10.30;99.90;;;;;;4944000;28;20227;-63
2021/12/30 00:18:21;;;;;;;12.88;10.68;;;10.40;99.90;;;;;;4936022;29;20302;-64
2021/12/30 00:20:49;;;;;;;13.48;12.18;;;10.40;99.90;;;;;;4936415;29;20234;-63
2021/12/30 00:23:19;;;;;;;15.15;12.85;;;10.50;99.90;;;;;;4935861;29;20662;-63
2021/12/30 00:25:48;;;;;;;11.30;9.95;;;10.50;99.90;;;;;;4943093;29;20226;-63
2021/12/30 00:28:18;;;;;;;11.23;10.13;;;10.50;99.90;;;;;;4954063;29;20700;-64
2021/12/30 00:30:47;;;;;;;10.13;9.00;;;10.50;99.90;;;;;;4955264;28;20670;-63
2021/12/30 00:33:16;;;;;;;9.15;8.35;;;10.60;99.90;;;;;;4954040;29;20210;-64
2021/12/30 00:35:49;;;;;;;7.53;6.78;;;10.60;99.90;;;;;;4955412;28;20203;-64
2021/12/30 00:38:18;;;;;;;7.65;6.50;;;10.60;99.90;;;;;;4963516;28;20250;-64
2021/12/30 00:40:47;;;;;;;6.70;6.10;;;10.60;99.90;;;;;;4954110;29;20306;-65
2021/12/30 00:43:15;;;;;;;7.15;6.22;;;10.60;99.90;;;;;;4953801;29;20301;-64
2021/12/30 00:45:43;;;;;;;6.25;5.70;;;10.60;99.90;;;;;;4948151;28;20727;-64
2021/12/30 00:48:11;;;;;;;5.88;5.20;;;10.70;99.90;;;;;;4954043;29;20211;-64
2021/12/30 00:50:41;;;;;;;5.40;4.75;;;10.70;99.90;;;;;;4954065;29;20668;-64
2021/12/30 00:53:10;;;;;;;7.25;5.32;;;10.70;99.90;;;;;;4953746;29;20720;-64
2021/12/30 00:55:40;;;;;;;5.43;4.05;;;10.80;99.90;;;;;;4953597;28;20726;-64
2021/12/30 00:58:09;;;;;;;5.80;4.50;;;10.80;99.90;;;;;;4954018;29;20290;-64
2021/12/30 01:00:40;;;;;;;4.85;4.30;;;10.80;99.90;;;;;;4953976;29;20700;-64
2021/12/30 01:03:09;;;;;;;5.07;3.55;;;10.80;99.90;;;;;;4954055;29;20290;-64
2021/12/30 01:05:38;;;;;;;3.58;3.28;;;10.80;99.90;;;;;;4953934;28;20283;-64
2021/12/30 01:08:07;;;;;;;3.88;3.47;;;10.80;99.90;;;;;;4959024;28;20286;-64
2021/12/30 01:10:36;;;;;;;3.97;3.67;;;10.80;99.90;;;;;;4954264;28;20250;-64
2021/12/30 01:13:08;;;;;;;5.60;3.95;;;10.80;99.90;;;;;;4954643;29;20319;-63
2021/12/30 01:15:49;;;;;;;4.47;3.55;;;10.90;99.90;;;;;;4954621;29;20237;-64
2021/12/30 01:18:34;;;;;;;3.83;2.95;;;10.90;99.90;;;;;;4955095;28;20218;-64
2021/12/30 01:21:05;;;;;;;6.25;3.67;;;11.00;99.90;;;;;;4962321;28;20234;-65
2021/12/30 01:23:33;;;;;;;6.93;3.47;;;11.00;99.90;;;;;;4954257;29;20278;-64
2021/12/30 01:26:01;;;;;;;6.85;3.35;;;11.10;99.90;;;;;;4954311;29;20227;-64
2021/12/30 01:28:31;;;;;;;6.90;3.03;;;10.90;99.90;;;;;;4954322;28;20191;-63
2021/12/30 01:30:59;;;;;;;4.97;2.97;;;10.70;99.90;;;;;;4954166;29;20299;-64
2021/12/30 01:33:27;;;;;;;5.45;3.75;;;10.60;99.90;;;;;;4954516;29;20211;-64
2021/12/30 01:35:55;;;;;;;6.22;3.45;;;10.60;99.90;;;;;;4956921;28;20203;-63
2021/12/30 01:38:23;;;;;;;5.40;3.08;;;10.60;99.90;;;;;;4965775;28;20294;-63
2021/12/30 01:40:53;;;;;;;7.63;3.70;;;10.60;99.90;;;;;;4974099;28;20778;-64
2021/12/30 01:43:22;;;;;;;5.85;3.60;;;10.60;99.90;;;;;;4973896;28;20195;-64
2021/12/30 01:45:51;;;;;;;6.88;3.45;;;10.50;99.90;;;;;;4974488;28;20245;-64
2021/12/30 01:48:20;;;;;;;5.15;3.55;;;10.40;99.90;;;;;;4974219;28;20575;-64
2021/12/30 01:50:50;;;;;;;6.50;3.65;;;10.30;99.90;;;;;;4974528;28;20768;-63
2021/12/30 01:53:19;;;;;;;4.30;2.92;;;10.20;99.90;;;;;;4974783;28;20230;-64
2021/12/30 01:55:47;;;;;;;7.68;3.53;;;10.30;99.90;;;;;;4974991;28;20230;-64
2021/12/30 01:58:15;;;;;;;9.20;2.90;;;10.30;99.90;;;;;;4976247;28;20240;-63
2021/12/30 02:00:46;;;;;;;4.97;2.90;;;10.30;99.90;;;;;;4979839;28;20278;-64
2021/12/30 02:03:16;;;;;;;6.72;2.67;;;10.40;99.90;;;;;;4979727;28;20198;-64
2021/12/30 02:05:45;;;;;;;4.93;2.05;;;10.50;99.90;;;;;;4976292;28;20621;-64
2021/12/30 02:08:15;;;;;;;4.72;2.40;;;10.50;99.90;;;;;;4972416;28;20238;-64
2021/12/30 02:10:45;;;;;;;9.48;2.40;;;10.60;99.90;;;;;;4978957;28;20284;-63
2021/12/30 02:13:15;;;;;;;7.60;2.40;;;10.60;99.90;;;;;;4977259;28;20754;-63
2021/12/30 02:15:43;;;;;;;8.35;2.80;;;10.70;99.90;;;;;;4977220;28;20233;-63
2021/12/30 02:18:11;;;;;;;4.00;1.55;;;10.80;99.90;;;;;;4976963;28;20641;-64
2021/12/30 02:20:50;;;;;;;6.38;2.30;;;10.90;99.90;;;;;;4970636;28;20246;-63
2021/12/30 02:23:20;;;;;;;4.80;2.20;;;10.90;99.90;;;;;;4957177;29;20286;-63
2021/12/30 02:25:50;;;;;;;5.25;1.55;;;11.00;99.90;;;;;;4967141;28;20224;-63
2021/12/30 02:28:19;;;;;;;3.67;1.70;;;11.00;99.90;;;;;;4959379;28;20222;-64
2021/12/30 02:30:47;;;;;;;3.53;1.48;;;11.00;99.90;;;;;;4957693;29;20322;-63
2021/12/30 02:33:15;;;;;;;5.18;1.95;;;11.10;99.90;;;;;;4957115;29;20234;-63
2021/12/30 02:35:45;;;;;;;5.63;2.42;;;11.10;99.90;;;;;;4957984;28;20211;-63
2021/12/30 02:38:13;;;;;;;3.65;1.85;;;11.10;99.90;;;;;;4967869;28;20660;-63
2021/12/30 02:40:44;;;;;;;2.92;1.80;;;11.10;99.90;;;;;;4976467;28;20249;-63
2021/12/30 02:43:14;;;;;;;4.13;1.42;;;11.10;99.90;;;;;;4976259;28;20278;-63
2021/12/30 02:45:42;;;;;;;5.85;2.00;;;11.20;99.90;;;;;;4976612;28;20225;-63
2021/12/30 02:48:13;;;;;;;5.28;2.20;;;11.20;99.90;;;;;;4976212;28;20226;-64
2021/12/30 02:50:41;;;;;;;3.30;1.75;;;11.10;99.90;;;;;;4976345;28;20265;-63
2021/12/30 02:53:11;;;;;;;5.18;2.17;;;11.10;99.90;;;;;;4975585;28;20847;-64
2021/12/30 02:55:39;;;;;;;2.72;1.67;;;11.20;99.90;;;;;;4975897;28;20630;-63
2021/12/30 02:58:07;;;;;;;6.50;1.80;;;11.20;99.90;;;;;;4976060;28;20230;-64
2021/12/30 03:00:37;;;;;;;10.40;2.63;;;11.10;99.90;;;;;;4975654;28;20321;-63
2021/12/30 03:03:06;;;;;;;4.70;1.90;;;11.10;99.90;;;;;;4975691;28;20199;-63
2021/12/30 03:05:34;;;;;;;7.28;1.95;;;11.10;99.90;;;;;;4972262;28;20303;-64
2021/12/30 03:08:02;;;;;;;2.97;1.60;;;11.10;99.90;;;;;;4967481;28;20209;-63
2021/12/30 03:10:31;;;;;;;4.22;2.00;;;11.10;99.90;;;;;;4977465;28;20222;-64
2021/12/30 03:13:05;;;;;;;4.25;1.60;;;11.10;99.90;;;;;;4980582;28;20237;-64
2021/12/30 03:15:33;;;;;;;5.50;2.20;;;11.10;99.90;;;;;;4980553;28;20222;-64
2021/12/30 03:18:01;;;;;;;7.65;2.75;;;11.10;99.90;;;;;;4980804;28;20203;-63
2021/12/30 03:20:33;;;;;;;4.82;2.47;;;11.20;99.90;;;;;;4975240;28;20219;-63
2021/12/30 03:23:01;;;;;;;5.35;2.25;;;11.20;99.90;;;;;;4960961;29;20191;-63
2021/12/30 03:25:31;;;;;;;4.90;2.25;;;11.20;99.90;;;;;;4961104;29;20250;-64
2021/12/30 03:27:59;;;;;;;5.90;2.70;;;11.30;99.90;;;;;;4961436;29;20556;-64
2021/12/30 03:30:27;;;;;;;6.30;2.05;;;11.30;99.90;;;;;;4961792;28;20337;-64
2021/12/30 03:32:55;;;;;;;4.90;2.17;;;11.30;99.90;;;;;;4971015;28;20251;-64
2021/12/30 03:35:23;;;;;;;5.57;2.67;;;11.20;99.90;;;;;;4959953;28;20238;-64
2021/12/30 03:37:51;;;;;;;4.50;2.00;;;11.20;99.90;;;;;;4970084;28;20234;-63
2021/12/30 03:40:19;;;;;;;3.38;1.90;;;11.20;99.90;;;;;;4980354;28;20327;-63
2021/12/30 03:42:48;;;;;;;6.40;2.13;;;11.20;99.90;;;;;;4976241;28;20256;-63
2021/12/30 03:45:16;;;;;;;5.63;2.38;;;11.20;99.90;;;;;;4976338;28;20229;-63
2021/12/30 03:47:47;;;;;;;5.93;2.10;;;11.20;99.90;;;;;;4976100;28;20734;-63
2021/12/30 03:50:20;;;;;;;5.55;2.65;;;11.20;99.90;;;;;;4975953;28;20869;-63
2021/12/30 03:52:50;;;;;;;6.43;2.55;;;11.20;99.90;;;;;;4975517;28;20948;-63
2021/12/30 03:55:19;;;;;;;10.88;3.13;;;11.20;99.90;;;;;;4976495;28;20205;-64
2021/12/30 03:57:49;;;;;;;4.32;2.33;;;11.10;99.90;;;;;;4976858;28;20730;-63
2021/12/30 04:00:19;;;;;;;7.43;2.58;;;11.00;99.90;;;;;;4978306;28;20289;-63
2021/12/30 04:02:46;;;;;;;11.13;3.88;;;11.00;99.90;;;;;;4978166;28;20219;-63
2021/12/30 04:05:14;;;;;;;9.38;2.92;;;11.00;99.90;;;;;;4976534;28;20237;-63
2021/12/30 04:07:42;;;;;;;4.80;1.83;;;11.00;99.90;;;;;;4967059;28;20266;-63
2021/12/30 04:10:13;;;;;;;6.32;2.97;;;11.10;99.90;;;;;;4978606;28;20214;-64
2021/12/30 04:12:42;;;;;;;6.25;2.17;;;11.10;99.90;;;;;;4977135;28;20769;-63
2021/12/30 04:15:12;;;;;;;8.05;2.90;;;11.20;99.90;;;;;;4976994;28;20241;-64
2021/12/30 04:17:40;;;;;;;8.30;3.55;;;11.20;99.90;;;;;;4974686;28;20257;-63
2021/12/30 04:20:10;;;;;;;10.10;2.67;;;11.20;99.90;;;;;;4974854;28;20358;-63
2021/12/30 04:22:40;;;;;;;6.68;1.85;;;11.20;99.90;;;;;;4957142;28;20222;-63
2021/12/30 04:25:10;;;;;;;8.40;2.78;;;11.20;99.90;;;;;;4957022;29;20851;-63
2021/12/30 04:27:38;;;;;;;10.40;2.80;;;11.10;99.90;;;;;;4957414;29;20229;-63
2021/12/30 04:30:09;;;;;;;5.60;2.22;;;11.10;99.90;;;;;;4956861;29;20270;-63
2021/12/30 04:32:38;;;;;;;8.60;2.78;;;11.20;99.90;;;;;;4957800;29;20231;-63
2021/12/30 04:35:08;;;;;;;7.55;2.65;;;11.20;99.90;;;;;;4958090;29;20247;-63
2021/12/30 04:37:36;;;;;;;6.45;2.38;;;11.10;99.90;;;;;;4966704;28;20203;-63
2021/12/30 04:40:05;;;;;;;7.70;2.20;;;11.20;99.90;;;;;;4969807;28;20325;-63
2021/12/30 04:42:33;;;;;;;9.70;2.35;;;11.20;99.90;;;;;;4976008;28;20234;-63
2021/12/30 04:45:01;;;;;;;9.55;2.65;;;11.20;99.90;;;;;;4975125;28;20198;-63
2021/12/30 04:47:29;;;;;;;5.30;1.95;;;11.30;99.90;;;;;;4974928;28;20680;-63
2021/12/30 04:49:59;;;;;;;8.00;2.10;;;11.20;99.90;;;;;;4975650;28;20313;-63
2021/12/30 04:52:27;;;;;;;7.43;2.40;;;11.20;99.90;;;;;;4975669;28;20258;-63
2021/12/30 04:54:55;;;;;;;7.07;2.53;;;11.20;99.90;;;;;;4974990;28;20242;-63
2021/12/30 04:57:23;;;;;;;2.42;1.88;;;11.20;99.90;;;;;;4974748;28;20287;-63
2021/12/30 04:59:51;;;;;;;9.15;2.85;;;11.20;99.90;;;;;;4975070;28;20647;-63
2021/12/30 05:02:19;;;;;;;6.85;2.80;;;11.30;99.90;;;;;;4974814;28;20226;-64
2021/12/30 05:04:47;;;;;;;7.97;2.55;;;11.30;99.90;;;;;;4975154;28;20613;-63
2021/12/30 05:07:16;;;;;;;7.88;2.63;;;11.30;99.90;;;;;;4962171;28;20294;-63
2021/12/30 05:09:44;;;;;;;9.60;2.40;;;11.30;99.90;;;;;;4972213;28;20309;-63
2021/12/30 05:12:12;;;;;;;7.93;2.50;;;11.30;99.90;;;;;;4974197;28;20717;-63
2021/12/30 05:14:39;;;;;;;8.50;2.80;;;11.30;99.90;;;;;;4974594;28;20273;-64
2021/12/30 05:17:07;;;;;;;6.50;2.30;;;11.30;99.90;;;;;;4974760;28;20286;-64
2021/12/30 05:19:35;;;;;;;5.70;2.42;;;11.30;99.90;;;;;;4975068;28;20301;-63
2021/12/30 05:22:03;;;;;;;6.32;2.28;;;11.20;99.90;;;;;;4950758;28;20226;-63
2021/12/30 05:24:33;;;;;;;9.63;2.95;;;11.30;99.90;;;;;;4955161;29;20290;-63
2021/12/30 05:27:00;;;;;;;10.32;2.35;;;11.30;99.90;;;;;;4955518;28;20282;-64
2021/12/30 05:29:28;;;;;;;9.60;2.80;;;11.40;99.90;;;;;;4955017;29;20231;-63
2021/12/30 05:31:56;;;;;;;9.10;2.97;;;11.40;99.90;;;;;;4949047;28;20231;-63
2021/12/30 05:34:24;;;;;;;8.77;3.17;;;11.40;99.90;;;;;;4953480;28;20630;-63
2021/12/30 05:36:52;;;;;;;8.40;3.20;;;11.30;99.90;;;;;;4953933;28;20231;-63
2021/12/30 05:39:19;;;;;;;3.95;2.83;;;11.30;99.90;;;;;;4953896;28;20258;-63
2021/12/30 05:41:50;;;;;;;6.25;3.38;;;11.30;99.90;;;;;;4956764;29;20195;-63
2021/12/30 05:44:17;;;;;;;12.95;3.65;;;11.30;99.90;;;;;;4965934;28;20573;-63
2021/12/30 05:46:45;;;;;;;10.18;4.03;;;11.30;99.90;;;;;;4955443;29;20230;-63
2021/12/30 05:49:13;;;;;;;7.00;3.65;;;11.30;99.90;;;;;;4958544;29;20594;-63
2021/12/30 05:51:42;;;;;;;9.00;4.05;;;11.30;99.90;;;;;;4958264;29;20617;-62
2021/12/30 05:54:10;;;;;;;6.35;3.85;;;11.30;99.90;;;;;;4960323;28;20255;-63
2021/12/30 05:56:38;;;;;;;6.85;2.85;;;11.30;99.90;;;;;;4960163;29;20206;-63
2021/12/30 05:59:07;;;;;;;6.13;2.90;;;11.40;99.90;;;;;;4954411;29;20215;-63
2021/12/30 06:01:35;;;;;;;6.47;3.28;;;11.50;99.90;;;;;;4951332;29;20242;-63
2021/12/30 06:04:04;;;;;;;6.38;3.75;;;11.50;99.90;;;;;;4957321;28;20191;-63
2021/12/30 06:06:31;;;;;;;7.03;3.40;;;11.40;99.90;;;;;;4957158;29;20239;-63
2021/12/30 06:08:59;;;;;;;6.95;3.50;;;11.40;99.90;;;;;;4957088;29;20215;-62
2021/12/30 06:11:27;;;;;;;7.82;3.75;;;11.50;99.90;;;;;;4955547;29;20202;-63
2021/12/30 06:13:55;;;;;;;8.00;3.75;;;11.60;99.90;;;;;;4954443;29;20314;-62
2021/12/30 06:16:25;;;;;;;8.90;3.72;;;11.60;99.90;;;;;;4954160;29;20282;-63
2021/12/30 06:18:53;;;;;;;7.65;3.55;;;11.60;99.90;;;;;;4953672;29;20210;-63
2021/12/30 06:21:21;;;;;;;8.02;4.13;;;11.60;99.90;;;;;;4965619;28;20223;-63
2021/12/30 06:23:48;;;;;;;13.57;5.85;;;11.70;99.90;;;;;;4972249;28;20233;-63
2021/12/30 06:26:16;;;;;;;13.68;5.45;;;11.60;99.90;;;;;;4972681;28;20718;-63
2021/12/30 06:28:44;;;;;;;11.30;5.65;;;11.70;99.90;;;;;;4972280;28;20227;-63
2021/12/30 06:31:12;;;;;;;7.22;5.75;;;11.60;99.90;;;;;;4961534;28;20332;-63
2021/12/30 06:33:42;;;;;;;14.82;6.60;;;11.60;99.90;;;;;;4961722;28;20223;-63
2021/12/30 06:36:11;;;;;;;10.63;5.90;;;11.50;99.90;;;;;;4976747;28;20230;-63
2021/12/30 06:38:39;;;;;;;11.32;5.40;;;11.50;99.90;;;;;;4976084;28;20227;-63
2021/12/30 06:41:07;;;;;;;8.02;5.70;;;11.50;99.90;;;;;;4973711;28;20257;-63
2021/12/30 06:43:36;;;;;;;13.32;5.75;;;11.50;99.90;;;;;;4954153;29;20203;-63
2021/12/30 06:46:05;;;;;;;9.13;6.38;;;11.50;99.90;;;;;;4956955;29;20231;-63
2021/12/30 06:48:33;;;;;;;8.52;5.55;;;11.60;99.90;;;;;;4959163;28;20223;-63
2021/12/30 06:51:04;;;;;;;15.38;8.20;;;11.60;99.90;;;;;;4964966;28;20593;-62
2021/12/30 06:53:34;;;;;;;12.45;8.02;;;11.60;99.90;;;;;;4975705;28;20221;-62
2021/12/30 06:56:01;;;;;;;13.20;7.90;;;11.60;99.90;;;;;;4976942;28;20302;-63
2021/12/30 06:58:30;;;;;;;10.63;7.32;;;11.50;99.90;;;;;;4976668;28;20226;-62
2021/12/30 07:00:58;;;;;;;11.50;6.57;;;11.50;99.90;;;;;;4970360;28;20306;-62
2021/12/30 07:03:26;;;;;;;10.23;6.30;;;11.50;99.90;;;;;;4966771;28;20227;-62
2021/12/30 07:05:55;;;;;;;11.18;6.20;;;11.50;99.90;;;;;;4976883;28;20241;-63
2021/12/30 07:08:24;;;;;;;7.57;6.70;;;11.50;99.90;;;;;;4976979;28;20231;-63
2021/12/30 07:10:52;;;;;;;11.88;6.72;;;11.50;99.90;;;;;;4965834;28;20266;-65
2021/12/30 07:13:20;;;;;;;11.07;7.40;;;11.40;99.90;;;;;;4950729;28;20254;-65
2021/12/30 07:15:48;;;;;;;15.20;6.78;;;11.40;99.90;;;;;;4955761;28;20211;-64
2021/12/30 07:18:16;;;;;;;11.63;7.40;;;11.30;99.90;;;;;;4949027;29;20274;-64
2021/12/30 07:20:44;;;;;;;15.57;8.65;;;11.30;99.90;;;;;;4955588;29;20243;-65
2021/12/30 07:23:12;;;;;;;14.63;9.50;;;11.30;99.90;;;;;;4955314;29;20235;-65
2021/12/30 07:25:41;;;;;;;10.57;8.45;;;11.30;99.90;;;;;;4955617;29;20238;-64
2021/12/30 07:28:09;;;;;;;10.32;9.27;;;11.30;99.90;;;;;;4955310;29;20294;-65
2021/12/30 07:30:37;;;;;;;13.60;9.20;;;11.30;99.90;;;;;;4949946;29;20266;-64
2021/12/30 07:33:07;;;;;;;14.98;10.18;;;11.40;99.90;;;;;;4955532;28;20680;-64
2021/12/30 07:35:36;;;;;;;17.98;7.32;;;11.40;99.90;;;;;;4941444;28;20208;-63
2021/12/30 07:38:04;;;;;;;20.40;9.55;;;12.20;99.90;;;;;;4948824;29;20226;-64
2021/12/30 07:40:33;;;;;;;22.90;9.93;;;12.60;99.90;;;;;;4950352;28;20306;-65
2021/12/30 07:43:02;;;;;;;19.42;7.97;;;13.00;99.90;;;;;;4957898;28;20202;-65
2021/12/30 07:45:30;;;;;;;15.57;7.88;;;13.60;99.90;;;;;;4957242;28;20214;-65
2021/12/30 07:47:58;;;;;;;8.88;5.80;;;14.00;99.90;;;;;;4951579;28;20203;-65
2021/12/30 07:50:27;;;;;;;7.90;5.20;;;14.30;99.90;;;;;;4956652;28;20261;-65
2021/12/30 07:52:55;;;;;;;9.05;4.72;;;14.30;99.90;;;;;;4951290;28;20302;-64
2021/12/30 07:55:23;;;;;;;7.63;3.85;;;14.40;99.90;;;;;;4960177;28;20329;-65
2021/12/30 07:57:55;;;;;;;9.43;5.80;;;14.50;99.90;;;;;;4969430;28;20269;-64
2021/12/30 08:00:26;;;;;;;8.48;5.68;;;14.30;99.90;;;;;;4955739;28;20661;-66
2021/12/30 08:02:54;;;;;;;10.48;6.80;;;13.90;99.90;;;;;;4958520;28;20213;-64
2021/12/30 08:05:22;;;;;;;9.85;6.40;;;13.70;99.90;;;;;;4947416;29;20323;-65
2021/12/30 08:07:50;;;;;;;9.30;5.10;;;13.40;99.90;;;;;;4950113;29;20198;-65
2021/12/30 08:10:19;;;;;;;7.45;5.43;;;13.80;99.90;;;;;;4956598;28;20754;-65
2021/12/30 08:12:48;;;;;;;6.55;5.22;;;14.20;99.90;;;;;;4967204;28;20211;-65
2021/12/30 08:15:17;;;;;;;6.05;5.45;;;14.00;99.90;;;;;;4960732;28;20224;-65
2021/12/30 08:17:48;;;;;;;7.55;5.15;;;14.30;99.90;;;;;;4967009;28;20210;-65
2021/12/30 08:20:17;;;;;;;10.23;5.45;;;14.50;99.90;;;;;;4959768;28;20225;-66
2021/12/30 08:22:45;;;;;;;7.50;4.97;;;14.70;99.90;;;;;;4952261;28;20238;-65
2021/12/30 08:25:14;;;;;;;7.63;6.20;;;14.80;99.90;;;;;;4957577;28;20235;-65
2021/12/30 08:27:42;;;;;;;7.63;5.45;;;14.70;99.90;;;;;;4966451;28;20206;-65
2021/12/30 08:30:13;;;;;;;11.05;4.85;;;14.70;99.90;;;;;;4942343;28;20354;-66
2021/12/30 08:32:43;;;;;;;3.78;3.40;;;14.80;99.90;;;;;;4945793;28;20238;-65
2021/12/30 08:35:13;;;;;;;5.63;4.55;;;14.70;99.90;;;;;;4957146;28;21053;-65
2021/12/30 08:37:42;;;;;;;3.63;3.17;;;14.80;99.90;;;;;;4966137;28;20198;-65
2021/12/30 08:40:12;;;;;;;5.25;3.33;;;14.80;99.90;;;;;;4958401;28;20333;-66
2021/12/30 08:42:40;;;;;;;4.47;4.07;;;14.90;99.90;;;;;;4952824;28;20294;-65
2021/12/30 08:45:09;;;;;;;5.28;3.00;;;15.00;99.90;;;;;;4957252;28;20216;-65
2021/12/30 08:47:38;;;;;;;4.90;3.28;;;14.70;99.90;;;;;;4965198;28;20281;-65
2021/12/30 08:50:09;;;;;;;4.43;2.42;;;14.80;99.90;;;;;;4958333;28;20223;-65
2021/12/30 08:52:39;;;;;;;4.18;2.20;;;14.70;99.90;;;;;;4965055;28;20242;-65
2021/12/30 08:55:08;;;;;;;3.13;2.05;;;14.70;99.90;;;;;;4962803;28;20346;-65
2021/12/30 08:57:40;;;;;;;4.13;2.13;;;14.50;99.90;;;;;;4959744;28;20754;-65
2021/12/30 09:00:11;;;;;;;3.30;2.97;;;14.10;99.90;;;;;;4944992;28;20235;-65
2021/12/30 09:02:40;;;;;;;3.70;2.30;;;13.70;99.90;;;;;;4961614;28;20210;-65
2021/12/30 09:05:09;;;;;;;3.55;3.15;;;13.50;99.90;;;;;;4962183;28;20207;-66
2021/12/30 09:07:38;;;;;;;3.60;2.53;;;13.30;99.90;;;;;;4947930;28;20287;-65
2021/12/30 09:10:08;;;;;;;2.80;2.50;;;13.10;99.90;;;;;;4955018;28;20251;-65
2021/12/30 09:12:36;;;;;;;2.53;2.35;;;13.00;99.90;;;;;;4964151;28;20299;-64
2021/12/30 09:15:20;;;;;;;2.65;2.15;;;13.00;99.90;;;;;;4961308;28;20783;-65
2021/12/30 09:17:47;;;;;;;3.60;2.25;;;12.90;99.90;;;;;;4965822;28;20206;-65
2021/12/30 09:20:17;;;;;;;4.85;2.05;;;12.90;99.90;;;;;;4956591;28;20322;-65
2021/12/30 09:22:47;;;;;;;2.40;2.20;;;12.80;99.90;;;;;;4947977;28;20810;-65
2021/12/30 09:25:17;;;;;;;2.10;1.90;;;12.90;99.90;;;;;;4947407;28;20282;-65
2021/12/30 09:27:45;;;;;;;3.05;1.70;;;12.80;99.90;;;;;;4948090;29;20269;-65
2021/12/30 09:30:14;;;;;;;1.60;1.50;;;12.80;99.90;;;;;;4944578;28;20333;-65
2021/12/30 09:32:43;;;;;;;1.60;1.50;;;12.90;99.90;;;;;;4941768;28;20747;-65
2021/12/30 09:35:12;;;;;;;3.40;1.90;;;12.90;99.90;;;;;;4962291;28;20325;-65
2021/12/30 09:37:42;;;;;;;2.45;2.10;;;13.00;99.90;;;;;;4964670;28;20305;-66
2021/12/30 09:40:14;;;;;;;1.85;1.75;;;13.10;99.90;;;;;;4956660;28;20318;-66
2021/12/30 09:42:44;;;;;;;2.25;1.48;;;13.20;99.90;;;;;;4964570;28;20238;-65
2021/12/30 09:45:15;;;;;;;2.70;2.50;;;13.30;99.90;;;;;;4962363;28;20227;-65
2021/12/30 09:47:47;;;;;;;2.80;2.25;;;13.60;99.90;;;;;;4964897;28;20851;-65
2021/12/30 09:50:16;;;;;;;2.38;2.00;;;13.90;99.90;;;;;;4956018;28;20306;-65
2021/12/30 09:52:44;;;;;;;2.20;1.73;;;14.10;99.90;;;;;;4945463;28;20712;-65
2021/12/30 09:55:13;;;;;;;2.22;1.75;;;14.10;99.90;;;;;;4952047;28;20222;-65
2021/12/30 09:57:41;;;;;;;2.45;1.77;;;14.10;99.90;;;;;;4959658;28;20317;-65
2021/12/30 10:00:13;;;;;;;1.88;1.52;;;14.10;99.90;;;;;;4956864;28;21008;-65
2021/12/30 10:02:41;;;;;;;1.52;1.42;;;14.10;99.90;;;;;;4956754;28;20694;-66
2021/12/30 10:05:12;;;;;;;2.85;1.90;;;14.10;99.90;;;;;;4952264;28;20624;-65
2021/12/30 10:07:41;;;;;;;1.35;1.25;;;14.10;99.90;;;;;;4959064;28;20202;-65
2021/12/30 10:10:31;;;;;;;2.80;1.30;;;14.10;99.90;;;;;;4956571;28;20715;-66
2021/12/30 10:13:00;;;;;;;1.70;1.08;;;14.20;99.90;;;;;;4966427;28;20406;-65
2021/12/30 10:15:40;;;;;;;1.00;1.00;;;14.20;99.90;;;;;;4959672;28;20221;-65
2021/12/30 10:18:08;;;;;;;1.90;1.17;;;14.10;99.90;;;;;;4950840;28;20213;-65
2021/12/30 10:20:39;;;;;;;2.45;0.80;;;14.10;99.90;;;;;;4948535;28;20317;-66
2021/12/30 10:23:13;;;;;;;2.00;0.70;;;14.10;99.90;;;;;;4951455;29;20231;-66
2021/12/30 10:25:44;;;;;;;1.55;0.90;;;14.10;99.90;;;;;;4959015;28;20762;-65
2021/12/30 10:28:26;;;;;;;0.93;0.90;;;14.10;99.90;;;;;;4956169;28;20760;-65
2021/12/30 10:30:57;;;;;;;1.85;0.90;;;14.10;99.90;;;;;;4949700;29;20238;-65
2021/12/30 10:33:27;;;;;;;1.10;1.00;;;14.10;99.90;;;;;;4954166;28;20317;-65
2021/12/30 10:35:56;;;;;;;1.60;1.50;;;14.10;99.90;;;;;;4959939;28;20258;-65
2021/12/30 10:38:29;;;;;;;0.80;0.80;;;14.10;99.90;;;;;;4961135;28;20328;-65
2021/12/30 10:41:04;;;;;;;0.90;0.70;;;14.10;99.90;;;;;;4961674;28;20247;-65
2021/12/30 10:43:37;;;;;;;1.67;0.57;;;14.10;99.90;;;;;;4970645;28;20221;-65
2021/12/30 10:46:11;;;;;;;0.80;0.80;;;14.10;99.90;;;;;;4946267;28;20302;-65
2021/12/30 10:48:57;;;;;;;0.80;0.73;;;14.20;99.90;;;;;;4949650;28;20634;-65
2021/12/30 10:51:38;;;;;;;1.33;0.60;;;14.20;99.90;;;;;;4962534;28;20228;-65
2021/12/30 10:54:12;;;;;;;0.80;0.70;;;14.20;99.90;;;;;;4965910;28;20234;-65
2021/12/30 10:56:44;;;;;;;1.88;0.80;;;14.20;99.90;;;;;;4959257;28;20254;-65
2021/12/30 10:59:15;;;;;;;0.75;0.75;;;14.30;99.90;;;;;;4964369;28;20329;-65
2021/12/30 11:01:45;;;;;;;0.60;0.60;;;14.40;99.90;;;;;;4954667;28;20291;-65
2021/12/30 11:04:13;;;;;;;1.00;0.80;;;14.40;99.90;;;;;;4959161;28;20206;-64
2021/12/30 11:06:42;;;;;;;0.93;0.60;;;14.60;99.90;;;;;;4958919;28;20294;-66
2021/12/30 11:09:14;;;;;;;2.33;0.82;;;14.60;99.90;;;;;;4963823;28;20230;-65
2021/12/30 11:11:47;;;;;;;4.88;2.08;;;14.60;99.90;;;;;;4959388;28;20245;-65
2021/12/30 11:14:17;;;;;;;1.70;1.60;;;14.60;99.90;;;;;;4959826;28;20645;-66
2021/12/30 11:17:05;;;;;;;1.05;0.95;;;14.70;99.90;;;;;;4961718;28;20251;-65
2021/12/30 11:19:36;;;;;;;1.00;0.73;;;14.70;99.90;;;;;;4949230;28;20317;-66
2021/12/30 11:22:08;;;;;;;1.20;1.10;;;14.70;99.90;;;;;;4958433;28;20416;-65
2021/12/30 11:24:36;;;;;;;2.33;1.50;;;14.80;99.90;;;;;;4950105;29;20210;-66
2021/12/30 11:27:08;;;;;;;1.05;0.98;;;14.80;99.90;;;;;;4958221;28;20199;-65
2021/12/30 11:29:37;;;;;;;1.20;1.10;;;14.80;99.90;;;;;;4946002;28;20322;-66
2021/12/30 11:32:07;;;;;;;3.17;1.73;;;14.80;99.90;;;;;;4945876;28;20238;-66
2021/12/30 11:34:35;;;;;;;1.50;1.40;;;14.90;99.90;;;;;;4957270;28;20262;-65
2021/12/30 11:37:04;;;;;;;3.22;1.73;;;15.30;99.90;;;;;;4958617;28;20314;-65
2021/12/30 11:39:33;;;;;;;1.52;1.42;;;15.60;99.90;;;;;;4937832;29;20315;-65
2021/12/30 11:42:07;;;;;;;2.75;1.00;;;15.80;99.90;;;;;;4950531;28;20210;-64
2021/12/30 11:44:41;;;;;;;1.48;1.10;;;15.90;99.90;;;;;;4951454;29;20282;-66
2021/12/30 11:47:25;;;;;;;1.10;0.98;;;16.00;99.90;;;;;;4949747;28;20286;-65
2021/12/30 11:49:56;;;;;;;0.60;0.50;;;15.90;99.90;;;;;;4954450;29;20317;-64
2021/12/30 11:52:54;;;;;;;0.70;0.63;;;15.70;99.90;;;;;;4955311;29;20266;-65
2021/12/30 11:55:56;;;;;;;0.68;0.57;;;15.70;99.90;;;;;;4954767;29;20227;-66
2021/12/30 11:58:54;;;;;;;0.70;0.50;;;15.60;99.90;;;;;;4952410;29;20206;-66
2021/12/30 12:01:42;;;;;;;1.45;0.60;;;15.60;99.90;;;;;;4954290;29;20672;-66
2021/12/30 12:04:14;;;;;;;1.13;0.50;;;15.60;99.90;;;;;;4954435;29;20199;-66
2021/12/30 12:06:49;;;;;;;0.60;0.50;;;15.50;99.90;;;;;;4954721;29;20290;-65
2021/12/30 12:09:38;;;;;;;0.60;0.50;;;15.40;99.90;;;;;;4954999;29;20250;-65
2021/12/30 12:12:09;;;;;;;0.60;0.50;;;15.40;99.90;;;;;;4962541;28;20195;-65
2021/12/30 12:14:42;;;;;;;1.13;0.50;;;15.40;99.90;;;;;;4970467;28;20632;-64
2021/12/30 12:17:12;;;;;;;0.60;0.50;;;15.30;99.90;;;;;;4973751;28;20226;-65
2021/12/30 12:19:42;;;;;;;1.00;0.60;;;15.30;99.90;;;;;;4973980;28;20226;-66
2021/12/30 12:22:11;;;;;;;3.92;0.80;;;15.30;99.90;;;;;;4973814;28;20213;-65
2021/12/30 12:24:42;;;;;;;1.00;0.70;;;15.20;99.90;;;;;;4973877;28;20226;-65
2021/12/30 12:27:30;;;;;;;1.05;0.70;;;15.20;99.90;;;;;;4973980;28;20226;-65
2021/12/30 12:30:00;;;;;;;0.68;0.68;;;15.20;99.90;;;;;;4992915;23;20314;-64
2021/12/30 12:32:37;;;;;;;0.60;0.50;;;15.20;99.90;;;;;;4964875;28;20289;-64
2021/12/30 12:35:22;;;;;;;0.82;0.60;;;15.10;99.90;;;;;;4973625;28;20679;-65
2021/12/30 12:37:53;;;;;;;0.70;0.70;;;15.10;99.90;;;;;;4973738;28;20264;-64
2021/12/30 12:40:34;;;;;;;0.80;0.73;;;15.10;99.90;;;;;;4970877;28;20233;-65
2021/12/30 12:43:08;;;;;;;0.90;0.90;;;15.10;99.90;;;;;;4965020;28;20568;-66
2021/12/30 12:45:41;;;;;;;1.00;0.70;;;15.10;99.90;;;;;;4973519;28;20225;-64
2021/12/30 12:48:33;;;;;;;0.85;0.80;;;15.10;99.90;;;;;;4973910;28;20190;-64
2021/12/30 12:51:04;;;;;;;0.85;0.73;;;15.20;99.90;;;;;;4974176;28;20218;-64
2021/12/30 12:53:45;;;;;;;1.15;0.90;;;15.20;99.90;;;;;;4973479;28;20274;-64
2021/12/30 12:56:14;;;;;;;1.88;0.70;;;15.30;99.90;;;;;;4973445;28;20257;-64
2021/12/30 12:58:45;;;;;;;2.40;0.80;;;15.40;99.90;;;;;;4973388;28;20236;-64
2021/12/30 13:01:17;;;;;;;1.42;0.90;;;15.60;99.90;;;;;;4973242;28;20500;-64